Time;durP1;ratioP1;P1;durP2;ratioP2;P2;SDS_P1;SDS_P2;PMS_P1;PMS_P2;Temp;Humidity;BMP_temperature;BMP_pressure;BME280_temperature;BME280_humidity;BME280_pressure;Samples;Min_cycle;Max_cycle;Signal;HPM_P1;HPM_P2
2021/09/08 00:00:58;;;;;;;27.25;13.15;;;;;;;;;;5073174;28;20052;-69
2021/09/08 00:03:24;;;;;;;20.30;11.63;;;;;;;;;;5069627;28;20516;-69
2021/09/08 00:05:50;;;;;;;22.05;14.25;;;;;;;;;;5067466;28;20133;-69
2021/09/08 00:08:16;;;;;;;19.33;12.65;;;;;;;;;;5065799;28;20108;-69
2021/09/08 00:10:42;;;;;;;22.00;13.43;;;;;;;;;;5073595;28;20028;-69
2021/09/08 00:13:08;;;;;;;25.05;14.13;;;;;;;;;;5065446;28;20036;-69
2021/09/08 00:15:34;;;;;;;37.72;15.23;;;;;;;;;;5057700;28;20028;-69
2021/09/08 00:18:00;;;;;;;20.05;12.50;;;;;;;;;;5067749;28;20033;-69
2021/09/08 00:20:26;;;;;;;25.13;13.50;;;;;;;;;;5064224;28;20385;-69
2021/09/08 00:22:52;;;;;;;22.17;12.82;;;;;;;;;;5063628;28;20021;-69
2021/09/08 00:25:18;;;;;;;18.83;13.00;;;;;;;;;;5065771;28;20032;-69
2021/09/08 00:27:44;;;;;;;20.50;12.88;;;;;;;;;;5065004;28;20114;-69
2021/09/08 00:30:10;;;;;;;21.67;13.77;;;;;;;;;;5070426;28;20055;-69
2021/09/08 00:32:36;;;;;;;23.17;12.73;;;;;;;;;;5069996;28;20362;-69
2021/09/08 00:35:05;;;;;;;22.80;13.75;;;;;;;;;;5072332;28;20029;-69
2021/09/08 00:37:31;;;;;;;20.90;12.93;;;;;;;;;;5069981;28;20017;-69
2021/09/08 00:39:57;;;;;;;22.30;13.02;;;;;;;;;;5066789;28;20028;-69
2021/09/08 00:42:23;;;;;;;23.67;13.00;;;;;;;;;;5070715;28;20025;-69
2021/09/08 00:44:49;;;;;;;22.27;13.18;;;;;;;;;;5072452;28;20031;-69
2021/09/08 00:47:16;;;;;;;22.73;12.52;;;;;;;;;;5072428;28;20425;-69
2021/09/08 00:49:42;;;;;;;22.83;14.27;;;;;;;;;;5067138;28;20210;-69
2021/09/08 00:52:10;;;;;;;22.55;13.00;;;;;;;;;;5070248;28;20333;-69
2021/09/08 00:54:36;;;;;;;23.90;13.20;;;;;;;;;;5069766;28;20027;-69
2021/09/08 00:57:03;;;;;;;23.38;13.55;;;;;;;;;;5068828;28;20051;-69
2021/09/08 00:59:30;;;;;;;22.70;13.38;;;;;;;;;;5071407;28;20029;-69
2021/09/08 01:01:57;;;;;;;22.77;14.27;;;;;;;;;;5072016;28;20024;-69
2021/09/08 01:04:23;;;;;;;23.13;13.70;;;;;;;;;;5072437;28;20020;-69
2021/09/08 01:06:49;;;;;;;24.20;13.77;;;;;;;;;;5069191;28;20025;-69
2021/09/08 01:09:16;;;;;;;24.27;14.30;;;;;;;;;;5072211;28;20040;-69
2021/09/08 01:11:42;;;;;;;23.45;14.23;;;;;;;;;;5072087;28;20025;-69
2021/09/08 01:14:08;;;;;;;27.63;13.70;;;;;;;;;;5065170;28;20035;-69
2021/09/08 01:16:34;;;;;;;24.85;13.30;;;;;;;;;;5066971;28;20025;-69
2021/09/08 01:19:00;;;;;;;22.20;13.38;;;;;;;;;;5070802;28;20020;-69
2021/09/08 01:21:26;;;;;;;26.23;13.85;;;;;;;;;;5057400;28;20029;-69
2021/09/08 01:23:52;;;;;;;24.02;13.15;;;;;;;;;;5068609;28;20085;-69
2021/09/08 01:26:18;;;;;;;27.27;14.52;;;;;;;;;;5063874;28;20040;-69
2021/09/08 01:28:44;;;;;;;24.48;14.50;;;;;;;;;;5069078;28;20473;-69
2021/09/08 01:31:10;;;;;;;24.17;13.85;;;;;;;;;;5062397;28;20056;-69
2021/09/08 01:33:36;;;;;;;25.40;15.32;;;;;;;;;;5065905;28;20046;-69
2021/09/08 01:36:02;;;;;;;22.15;13.70;;;;;;;;;;5070174;28;20029;-69
2021/09/08 01:38:28;;;;;;;24.10;13.38;;;;;;;;;;5066089;28;20584;-69
2021/09/08 01:40:54;;;;;;;21.75;12.98;;;;;;;;;;5071470;28;20103;-69
2021/09/08 01:43:24;;;;;;;22.27;14.55;;;;;;;;;;5071180;28;20024;-69
2021/09/08 01:45:50;;;;;;;26.60;15.40;;;;;;;;;;5071552;28;20033;-69
2021/09/08 01:48:16;;;;;;;23.92;13.77;;;;;;;;;;5070930;28;20107;-69
2021/09/08 01:50:42;;;;;;;20.48;13.32;;;;;;;;;;5065971;28;20525;-69
2021/09/08 01:53:08;;;;;;;25.23;15.27;;;;;;;;;;5068761;28;20036;-69
2021/09/08 01:55:34;;;;;;;22.20;12.93;;;;;;;;;;5058433;28;20488;-69
2021/09/08 01:58:00;;;;;;;22.52;13.65;;;;;;;;;;5070460;28;20105;-69
2021/09/08 02:00:26;;;;;;;23.55;13.77;;;;;;;;;;5066344;28;20446;-69
2021/09/08 02:02:52;;;;;;;24.02;14.15;;;;;;;;;;5059708;28;20020;-69
2021/09/08 02:05:18;;;;;;;25.85;14.55;;;;;;;;;;5070001;28;20125;-69
2021/09/08 02:07:45;;;;;;;26.05;14.38;;;;;;;;;;5065896;28;20389;-69
2021/09/08 02:10:11;;;;;;;25.98;15.90;;;;;;;;;;5070711;28;20032;-69
2021/09/08 02:12:38;;;;;;;22.70;14.27;;;;;;;;;;5071760;28;20047;-69
2021/09/08 02:15:04;;;;;;;23.73;14.23;;;;;;;;;;5068942;28;20470;-69
2021/09/08 02:17:30;;;;;;;28.65;14.35;;;;;;;;;;5067719;28;20469;-69
2021/09/08 02:19:56;;;;;;;24.05;14.65;;;;;;;;;;5059700;28;20021;-69
2021/09/08 02:22:22;;;;;;;21.75;14.50;;;;;;;;;;5070990;28;20027;-69
2021/09/08 02:24:48;;;;;;;22.50;13.00;;;;;;;;;;5065388;28;20029;-69
2021/09/08 02:27:14;;;;;;;27.70;13.52;;;;;;;;;;5067354;28;20039;-69
2021/09/08 02:29:40;;;;;;;25.70;14.45;;;;;;;;;;5063469;28;20059;-69
2021/09/08 02:32:06;;;;;;;23.40;14.32;;;;;;;;;;5062205;28;20024;-69
2021/09/08 02:34:32;;;;;;;21.10;13.65;;;;;;;;;;5069229;28;20397;-69
2021/09/08 02:36:58;;;;;;;24.30;13.75;;;;;;;;;;5060117;28;20025;-69
2021/09/08 02:39:24;;;;;;;22.05;12.07;;;;;;;;;;5071534;28;20466;-69
2021/09/08 02:41:50;;;;;;;22.73;13.13;;;;;;;;;;5062039;28;20017;-69
2021/09/08 02:44:16;;;;;;;25.13;13.93;;;;;;;;;;5068485;28;20505;-69
2021/09/08 02:46:42;;;;;;;27.65;13.88;;;;;;;;;;5064492;28;20058;-69
2021/09/08 02:49:09;;;;;;;22.92;13.15;;;;;;;;;;5067142;28;20540;-69
2021/09/08 02:51:35;;;;;;;23.33;13.23;;;;;;;;;;5069303;28;20031;-69
2021/09/08 02:54:01;;;;;;;23.77;13.25;;;;;;;;;;5065685;28;20400;-69
2021/09/08 02:56:27;;;;;;;21.45;13.65;;;;;;;;;;5069785;28;20033;-69
2021/09/08 02:58:53;;;;;;;23.75;13.52;;;;;;;;;;5065070;28;20043;-69
2021/09/08 03:01:19;;;;;;;20.80;12.85;;;;;;;;;;5068675;28;20058;-69
2021/09/08 03:03:45;;;;;;;24.20;13.32;;;;;;;;;;5070316;28;20436;-69
2021/09/08 03:06:11;;;;;;;25.05;15.18;;;;;;;;;;5069991;28;20119;-69
2021/09/08 03:08:37;;;;;;;22.90;13.55;;;;;;;;;;5069043;28;20063;-69
2021/09/08 03:11:03;;;;;;;23.00;14.25;;;;;;;;;;5067184;28;20366;-69
2021/09/08 03:13:29;;;;;;;21.38;13.23;;;;;;;;;;5070503;28;20032;-69
2021/09/08 03:15:55;;;;;;;22.98;13.05;;;;;;;;;;5069321;28;20039;-69
2021/09/08 03:18:21;;;;;;;24.38;13.05;;;;;;;;;;5068098;28;20044;-69
2021/09/08 03:20:47;;;;;;;24.08;13.68;;;;;;;;;;5071830;28;20020;-69
2021/09/08 03:23:13;;;;;;;24.67;13.55;;;;;;;;;;5064596;28;20021;-69
2021/09/08 03:25:39;;;;;;;23.35;13.50;;;;;;;;;;5068014;28;20027;-69
2021/09/08 03:28:06;;;;;;;21.73;12.85;;;;;;;;;;5060444;28;20158;-69
2021/09/08 03:30:32;;;;;;;25.08;13.88;;;;;;;;;;5077466;28;20115;-69
2021/09/08 03:32:58;;;;;;;24.20;13.18;;;;;;;;;;5062492;28;20033;-69
2021/09/08 03:35:24;;;;;;;21.95;14.07;;;;;;;;;;5065579;28;20031;-69
2021/09/08 03:37:50;;;;;;;20.55;12.75;;;;;;;;;;5069998;28;20352;-69
2021/09/08 03:40:16;;;;;;;24.70;13.13;;;;;;;;;;5068473;28;20029;-69
2021/09/08 03:42:43;;;;;;;23.98;14.23;;;;;;;;;;5070171;28;20158;-69
2021/09/08 03:45:09;;;;;;;21.90;12.63;;;;;;;;;;5069319;28;20021;-69
2021/09/08 03:47:35;;;;;;;23.02;14.20;;;;;;;;;;5064717;28;20028;-69
2021/09/08 03:50:01;;;;;;;24.60;13.70;;;;;;;;;;5059650;28;20097;-69
2021/09/08 03:52:27;;;;;;;25.00;13.45;;;;;;;;;;5065635;28;20113;-69
2021/09/08 03:54:53;;;;;;;25.85;13.10;;;;;;;;;;5064801;28;20385;-69
2021/09/08 03:57:19;;;;;;;24.83;14.13;;;;;;;;;;5068481;28;20029;-69
2021/09/08 03:59:45;;;;;;;20.95;12.27;;;;;;;;;;5069991;28;20078;-69
2021/09/08 04:02:11;;;;;;;29.48;15.13;;;;;;;;;;5068511;28;20021;-69
2021/09/08 04:04:37;;;;;;;22.27;13.05;;;;;;;;;;5069093;28;20624;-69
2021/09/08 04:07:03;;;;;;;24.05;13.90;;;;;;;;;;5067588;28;20538;-69
2021/09/08 04:09:29;;;;;;;23.83;13.80;;;;;;;;;;5073761;28;20032;-69
2021/09/08 04:11:55;;;;;;;22.83;13.50;;;;;;;;;;5066238;28;20029;-69
2021/09/08 04:14:21;;;;;;;21.00;13.73;;;;;;;;;;5073413;28;20094;-70
2021/09/08 04:16:47;;;;;;;26.15;13.50;;;;;;;;;;5067785;28;20035;-69
2021/09/08 04:19:13;;;;;;;26.92;13.43;;;;;;;;;;5073250;28;20020;-69
2021/09/08 04:21:38;;;;;;;26.10;14.18;;;;;;;;;;5074469;28;20020;-69
2021/09/08 04:24:05;;;;;;;21.38;13.25;;;;;;;;;;5082130;28;20107;-70
2021/09/08 04:26:31;;;;;;;24.70;13.68;;;;;;;;;;5074983;28;20129;-70
2021/09/08 04:28:57;;;;;;;22.20;13.95;;;;;;;;;;5068699;28;20060;-70
2021/09/08 04:31:23;;;;;;;24.95;14.73;;;;;;;;;;5074681;28;20112;-70
2021/09/08 04:33:48;;;;;;;25.38;13.93;;;;;;;;;;5074929;28;20497;-70
2021/09/08 04:36:14;;;;;;;23.85;13.15;;;;;;;;;;5074125;28;20032;-70
2021/09/08 04:38:45;;;;;;;23.40;13.15;;;;;;;;;;5074967;28;20090;-70
2021/09/08 04:41:14;;;;;;;24.10;12.98;;;;;;;;;;5071811;28;20017;-70
2021/09/08 04:43:41;;;;;;;23.20;13.68;;;;;;;;;;5073895;28;20017;-70
2021/09/08 04:46:08;;;;;;;26.42;13.38;;;;;;;;;;5072386;28;20509;-70
2021/09/08 04:48:34;;;;;;;23.33;13.63;;;;;;;;;;5064711;28;20025;-70
2021/09/08 04:51:00;;;;;;;27.25;14.95;;;;;;;;;;5070482;28;20028;-70
2021/09/08 04:53:27;;;;;;;22.77;12.95;;;;;;;;;;5071768;28;20016;-70
2021/09/08 04:55:53;;;;;;;21.70;12.90;;;;;;;;;;5069031;28;20094;-70
2021/09/08 04:58:19;;;;;;;23.50;13.27;;;;;;;;;;5074224;28;20444;-70
2021/09/08 05:00:45;;;;;;;22.67;12.68;;;;;;;;;;5069097;28;20028;-70
2021/09/08 05:03:10;;;;;;;24.90;14.10;;;;;;;;;;5071625;28;20386;-70
2021/09/08 05:05:36;;;;;;;23.10;13.43;;;;;;;;;;5067436;28;20362;-70
2021/09/08 05:08:02;;;;;;;22.90;12.95;;;;;;;;;;5070948;28;20548;-70
2021/09/08 05:10:28;;;;;;;25.17;13.40;;;;;;;;;;5074336;28;20021;-70
2021/09/08 05:12:54;;;;;;;24.90;13.43;;;;;;;;;;5064916;28;20397;-70
2021/09/08 05:15:20;;;;;;;23.27;12.45;;;;;;;;;;5071570;28;20033;-70
2021/09/08 05:17:47;;;;;;;22.95;13.13;;;;;;;;;;5067275;28;20033;-70
2021/09/08 05:20:13;;;;;;;23.38;13.77;;;;;;;;;;5068559;28;20023;-70
2021/09/08 05:22:39;;;;;;;25.10;13.55;;;;;;;;;;5069845;28;20029;-69
2021/09/08 05:25:05;;;;;;;26.67;13.40;;;;;;;;;;5071712;28;20048;-69
2021/09/08 05:27:31;;;;;;;29.67;13.88;;;;;;;;;;5063628;28;20114;-69
2021/09/08 05:29:57;;;;;;;24.63;13.60;;;;;;;;;;5068273;28;20061;-69
2021/09/08 05:32:23;;;;;;;25.58;13.77;;;;;;;;;;5066394;28;20028;-70
2021/09/08 05:34:49;;;;;;;29.08;14.57;;;;;;;;;;5071341;28;20036;-70
2021/09/08 05:37:15;;;;;;;21.52;12.55;;;;;;;;;;5070534;28;20086;-70
2021/09/08 05:39:41;;;;;;;23.85;12.45;;;;;;;;;;5072752;28;20038;-69
2021/09/08 05:42:07;;;;;;;22.02;12.57;;;;;;;;;;5060255;28;20595;-69
2021/09/08 05:44:33;;;;;;;22.63;12.25;;;;;;;;;;5066564;28;20362;-69
2021/09/08 05:46:59;;;;;;;23.17;11.98;;;;;;;;;;5066317;28;20079;-70
2021/09/08 05:49:25;;;;;;;20.98;11.50;;;;;;;;;;5064691;28;20358;-70
2021/09/08 05:51:50;;;;;;;21.85;11.57;;;;;;;;;;5071091;28;20028;-69
2021/09/08 05:54:16;;;;;;;21.70;11.80;;;;;;;;;;5059242;28;20029;-70
2021/09/08 05:56:42;;;;;;;19.73;11.82;;;;;;;;;;5053540;28;20035;-70
2021/09/08 05:59:08;;;;;;;21.40;11.40;;;;;;;;;;5056576;28;20096;-69
2021/09/08 06:01:34;;;;;;;17.38;10.20;;;;;;;;;;5053309;28;20029;-68
2021/09/08 06:04:00;;;;;;;17.10;10.00;;;;;;;;;;5051984;28;20024;-68
2021/09/08 06:06:26;;;;;;;18.25;11.07;;;;;;;;;;5052577;28;20048;-68
2021/09/08 06:08:52;;;;;;;17.20;9.73;;;;;;;;;;5055270;28;20028;-68
2021/09/08 06:11:18;;;;;;;26.27;11.75;;;;;;;;;;5057626;28;20025;-69
2021/09/08 06:13:44;;;;;;;19.77;11.68;;;;;;;;;;5052266;28;20382;-69
2021/09/08 06:16:10;;;;;;;17.50;10.70;;;;;;;;;;5050523;28;20529;-69
2021/09/08 06:18:36;;;;;;;15.43;10.38;;;;;;;;;;5052823;28;20024;-69
2021/09/08 06:21:02;;;;;;;20.35;11.23;;;;;;;;;;5054463;28;20146;-70
2021/09/08 06:23:28;;;;;;;18.02;10.43;;;;;;;;;;5053341;28;20578;-69
2021/09/08 06:25:54;;;;;;;18.40;10.93;;;;;;;;;;5058427;28;20025;-69
2021/09/08 06:28:20;;;;;;;16.60;10.02;;;;;;;;;;5052928;28;20115;-70
2021/09/08 06:30:46;;;;;;;22.63;11.57;;;;;;;;;;5051777;28;20048;-70
2021/09/08 06:33:12;;;;;;;20.85;11.55;;;;;;;;;;5053215;28;20478;-69
2021/09/08 06:35:37;;;;;;;18.38;11.02;;;;;;;;;;5048840;28;20036;-69
2021/09/08 06:38:03;;;;;;;17.63;11.82;;;;;;;;;;5052133;28;20048;-70
2021/09/08 06:40:29;;;;;;;18.15;11.18;;;;;;;;;;5051041;28;20470;-70
2021/09/08 06:42:55;;;;;;;15.68;10.30;;;;;;;;;;5056435;28;20033;-69
2021/09/08 06:45:22;;;;;;;18.67;11.90;;;;;;;;;;5049975;28;20028;-69
2021/09/08 06:47:48;;;;;;;16.55;10.75;;;;;;;;;;5051630;28;20367;-69
2021/09/08 06:50:13;;;;;;;21.05;12.07;;;;;;;;;;5061835;28;20039;-69
2021/09/08 06:52:39;;;;;;;20.58;11.57;;;;;;;;;;5058935;28;20025;-69
2021/09/08 06:55:06;;;;;;;19.52;11.75;;;;;;;;;;5056809;28;20032;-69
2021/09/08 06:57:32;;;;;;;17.70;11.13;;;;;;;;;;5057773;28;20107;-69
2021/09/08 06:59:58;;;;;;;16.90;11.85;;;;;;;;;;5053091;28;20205;-69
2021/09/08 07:02:23;;;;;;;20.67;11.70;;;;;;;;;;5056754;28;20035;-68
2021/09/08 07:04:49;;;;;;;18.98;11.85;;;;;;;;;;5054674;28;20029;-68
2021/09/08 07:07:18;;;;;;;19.13;11.75;;;;;;;;;;5060513;28;20035;-68
2021/09/08 07:09:44;;;;;;;17.20;10.93;;;;;;;;;;5067316;28;20024;-68
2021/09/08 07:12:10;;;;;;;23.08;11.70;;;;;;;;;;5056517;28;20027;-69
2021/09/08 07:14:36;;;;;;;20.05;12.10;;;;;;;;;;5055761;28;20023;-68
2021/09/08 07:17:02;;;;;;;22.10;12.60;;;;;;;;;;5057106;28;20104;-68
2021/09/08 07:19:28;;;;;;;19.05;11.88;;;;;;;;;;5056320;28;20017;-68
2021/09/08 07:21:54;;;;;;;18.75;12.63;;;;;;;;;;5055070;28;20025;-68
2021/09/08 07:24:20;;;;;;;19.35;12.60;;;;;;;;;;5056577;28;20048;-68
2021/09/08 07:26:46;;;;;;;23.98;13.13;;;;;;;;;;5055796;28;20342;-68
2021/09/08 07:29:12;;;;;;;21.38;12.75;;;;;;;;;;5054168;28;20074;-68
2021/09/08 07:31:38;;;;;;;19.20;13.00;;;;;;;;;;5050748;28;20455;-68
2021/09/08 07:34:04;;;;;;;20.27;11.60;;;;;;;;;;5061196;28;20035;-68
2021/09/08 07:36:30;;;;;;;20.42;13.32;;;;;;;;;;5060890;28;20397;-67
2021/09/08 07:38:56;;;;;;;17.77;12.15;;;;;;;;;;5062035;28;20028;-68
2021/09/08 07:41:22;;;;;;;19.38;12.82;;;;;;;;;;5061221;28;20078;-68
2021/09/08 07:43:49;;;;;;;21.38;12.15;;;;;;;;;;5068505;28;20021;-68
2021/09/08 07:46:15;;;;;;;18.88;11.82;;;;;;;;;;5082798;28;20032;-68
2021/09/08 07:48:41;;;;;;;20.80;12.55;;;;;;;;;;5073232;28;20473;-69
2021/09/08 07:51:08;;;;;;;22.33;12.90;;;;;;;;;;5068949;28;20017;-69
2021/09/08 07:53:34;;;;;;;17.98;12.82;;;;;;;;;;5067671;28;20016;-69
2021/09/08 07:56:01;;;;;;;19.15;12.40;;;;;;;;;;5063154;28;20086;-68
2021/09/08 07:58:27;;;;;;;19.33;12.98;;;;;;;;;;5073825;28;20016;-67
2021/09/08 08:00:53;;;;;;;19.70;12.88;;;;;;;;;;5062245;28;20044;-68
2021/09/08 08:03:22;;;;;;;20.17;12.88;;;;;;;;;;5063313;28;20020;-68
2021/09/08 08:05:48;;;;;;;23.45;13.85;;;;;;;;;;5065851;28;20397;-68
2021/09/08 08:08:15;;;;;;;17.67;12.15;;;;;;;;;;5070190;28;20035;-68
2021/09/08 08:10:41;;;;;;;19.27;12.63;;;;;;;;;;5068550;28;20032;-68
2021/09/08 08:13:07;;;;;;;20.15;13.10;;;;;;;;;;5062967;28;20425;-68
2021/09/08 08:15:33;;;;;;;17.35;11.85;;;;;;;;;;5065928;28;20029;-68
2021/09/08 08:17:59;;;;;;;19.35;11.10;;;;;;;;;;5072798;28;20478;-68
2021/09/08 08:20:25;;;;;;;21.60;13.02;;;;;;;;;;5058094;28;20081;-69
2021/09/08 08:22:51;;;;;;;20.33;12.88;;;;;;;;;;5066217;28;20448;-68
2021/09/08 08:25:18;;;;;;;20.38;13.35;;;;;;;;;;5067804;28;20021;-68
2021/09/08 08:27:44;;;;;;;19.33;12.05;;;;;;;;;;5065819;28;20031;-68
2021/09/08 08:30:11;;;;;;;18.60;12.90;;;;;;;;;;5071992;28;20036;-68
2021/09/08 08:32:37;;;;;;;18.17;11.65;;;;;;;;;;5072790;28;20020;-68
2021/09/08 08:35:04;;;;;;;21.30;13.20;;;;;;;;;;5072238;28;20032;-67
2021/09/08 08:37:30;;;;;;;16.75;12.32;;;;;;;;;;5072713;28;20032;-67
2021/09/08 08:39:56;;;;;;;19.10;11.68;;;;;;;;;;5072256;28;20020;-68
2021/09/08 08:42:24;;;;;;;21.25;12.68;;;;;;;;;;5074642;28;20025;-67
2021/09/08 08:44:50;;;;;;;22.65;13.50;;;;;;;;;;5066954;28;20082;-68
2021/09/08 08:47:17;;;;;;;20.20;12.38;;;;;;;;;;5072233;28;20029;-67
2021/09/08 08:49:44;;;;;;;19.13;12.75;;;;;;;;;;5072228;28;20461;-68
2021/09/08 08:52:10;;;;;;;17.45;11.55;;;;;;;;;;5067131;28;20036;-67
2021/09/08 08:54:36;;;;;;;17.77;11.50;;;;;;;;;;5066931;28;20028;-68
2021/09/08 08:57:02;;;;;;;18.63;12.18;;;;;;;;;;5065140;28;20056;-68
2021/09/08 08:59:28;;;;;;;17.40;11.18;;;;;;;;;;5068189;28;20074;-68
2021/09/08 09:01:54;;;;;;;24.70;13.63;;;;;;;;;;5059990;28;20495;-68
2021/09/08 09:04:21;;;;;;;16.67;10.85;;;;;;;;;;5062633;28;20024;-68
2021/09/08 09:06:48;;;;;;;16.75;10.98;;;;;;;;;;5066464;28;20028;-68
2021/09/08 09:09:15;;;;;;;17.75;11.25;;;;;;;;;;5064781;28;20025;-68
2021/09/08 09:11:42;;;;;;;17.63;10.48;;;;;;;;;;5064382;28;20055;-68
2021/09/08 09:14:09;;;;;;;20.13;11.38;;;;;;;;;;5068284;28;20035;-68
2021/09/08 09:16:37;;;;;;;18.67;11.70;;;;;;;;;;5062456;28;20103;-68
2021/09/08 09:19:03;;;;;;;18.77;10.40;;;;;;;;;;5065903;28;20025;-68
2021/09/08 09:21:29;;;;;;;15.98;11.07;;;;;;;;;;5062992;28;20368;-68
2021/09/08 09:23:57;;;;;;;16.10;10.48;;;;;;;;;;5072205;28;20040;-68
2021/09/08 09:26:30;;;;;;;17.95;10.45;;;;;;;;;;5062040;28;20381;-69
2021/09/08 09:29:04;;;;;;;20.15;9.30;;;;;;;;;;5059126;28;20035;-69
2021/09/08 09:31:30;;;;;;;20.30;10.80;;;;;;;;;;5061623;28;20491;-68
2021/09/08 09:33:58;;;;;;;16.60;10.95;;;;;;;;;;5059924;28;20091;-71
2021/09/08 09:36:25;;;;;;;20.88;11.85;;;;;;;;;;5064649;28;20043;-69
2021/09/08 09:38:52;;;;;;;19.02;10.82;;;;;;;;;;5070280;28;20021;-69
2021/09/08 09:41:38;;;;;;;17.23;10.25;;;;;;;;;;5055718;28;20704;-69
2021/09/08 09:44:08;;;;;;;19.90;10.57;;;;;;;;;;5059102;28;20036;-69
2021/09/08 09:46:34;;;;;;;15.20;9.30;;;;;;;;;;5062743;28;20490;-69
2021/09/08 09:49:04;;;;;;;16.67;9.75;;;;;;;;;;5067611;28;20039;-69
2021/09/08 09:51:30;;;;;;;16.90;10.20;;;;;;;;;;5057117;28;20017;-69
2021/09/08 09:53:56;;;;;;;15.00;9.82;;;;;;;;;;5061511;28;20038;-69
2021/09/08 09:56:23;;;;;;;19.13;10.68;;;;;;;;;;5067521;28;20050;-69
2021/09/08 09:58:48;;;;;;;17.92;10.93;;;;;;;;;;5066566;28;20024;-69
2021/09/08 10:01:14;;;;;;;16.30;9.90;;;;;;;;;;5063983;28;20032;-69
2021/09/08 10:03:41;;;;;;;15.30;9.15;;;;;;;;;;5067360;28;20074;-69
2021/09/08 10:06:07;;;;;;;17.92;10.57;;;;;;;;;;5069244;28;20036;-69
2021/09/08 10:08:36;;;;;;;15.23;9.35;;;;;;;;;;5063059;28;20020;-69
2021/09/08 10:11:04;;;;;;;20.50;9.70;;;;;;;;;;5065779;28;20024;-69
2021/09/08 10:13:32;;;;;;;15.32;9.27;;;;;;;;;;5065767;28;20032;-70
2021/09/08 10:15:59;;;;;;;14.95;8.68;;;;;;;;;;5064209;28;20406;-69
2021/09/08 10:18:26;;;;;;;14.85;9.05;;;;;;;;;;5054498;28;20107;-69
2021/09/08 10:21:02;;;;;;;22.73;8.82;;;;;;;;;;5058422;28;20009;-69
2021/09/08 10:23:32;;;;;;;15.25;8.75;;;;;;;;;;5071953;28;20040;-69
2021/09/08 10:25:58;;;;;;;14.77;9.30;;;;;;;;;;5061985;28;20025;-69
2021/09/08 10:28:25;;;;;;;12.10;7.47;;;;;;;;;;5060657;28;20017;-69
2021/09/08 10:30:51;;;;;;;17.38;9.27;;;;;;;;;;5053427;28;20264;-68
2021/09/08 10:33:17;;;;;;;13.68;8.07;;;;;;;;;;5052011;28;20037;-69
2021/09/08 10:35:44;;;;;;;12.65;7.43;;;;;;;;;;5050827;28;20051;-69
2021/09/08 10:38:17;;;;;;;12.95;7.53;;;;;;;;;;5050698;28;20478;-69
2021/09/08 10:40:44;;;;;;;15.55;8.18;;;;;;;;;;5052188;28;20032;-69
2021/09/08 10:43:10;;;;;;;14.07;7.28;;;;;;;;;;5051931;28;20033;-69
2021/09/08 10:45:48;;;;;;;12.77;7.03;;;;;;;;;;5049484;28;20381;-69
2021/09/08 10:48:33;;;;;;;15.13;7.65;;;;;;;;;;5049221;28;20033;-69
2021/09/08 10:50:59;;;;;;;13.00;7.55;;;;;;;;;;5052543;28;20063;-69
2021/09/08 10:53:27;;;;;;;14.27;8.60;;;;;;;;;;5051816;28;20128;-68
2021/09/08 10:55:53;;;;;;;14.20;7.55;;;;;;;;;;5052185;28;20037;-68
2021/09/08 10:58:20;;;;;;;13.43;7.55;;;;;;;;;;5053640;28;20470;-68
2021/09/08 11:00:46;;;;;;;14.55;8.52;;;;;;;;;;5053325;28;21086;-68
2021/09/08 11:03:12;;;;;;;12.85;7.50;;;;;;;;;;5055488;28;20264;-68
2021/09/08 11:05:55;;;;;;;11.85;7.25;;;;;;;;;;5052888;28;20074;-68
2021/09/08 11:08:31;;;;;;;12.00;7.57;;;;;;;;;;5053921;28;20114;-68
2021/09/08 11:11:06;;;;;;;9.70;6.05;;;;;;;;;;5051570;28;20116;-69
2021/09/08 11:13:32;;;;;;;11.65;6.68;;;;;;;;;;5052486;28;20021;-69
2021/09/08 11:15:58;;;;;;;14.40;8.13;;;;;;;;;;5058859;28;20040;-70
2021/09/08 11:18:33;;;;;;;12.95;6.72;;;;;;;;;;5056188;28;20087;-70
2021/09/08 11:21:03;;;;;;;13.10;6.45;;;;;;;;;;5055929;28;20355;-70
2021/09/08 11:23:29;;;;;;;13.18;5.93;;;;;;;;;;5056291;28;20013;-69
2021/09/08 11:25:55;;;;;;;13.48;7.35;;;;;;;;;;5052198;28;20036;-70
2021/09/08 11:28:21;;;;;;;13.70;7.68;;;;;;;;;;5053550;28;20025;-69
2021/09/08 11:30:47;;;;;;;13.90;6.82;;;;;;;;;;5053670;28;20102;-69
2021/09/08 11:33:14;;;;;;;14.18;6.68;;;;;;;;;;5057259;28;20053;-69
2021/09/08 11:35:50;;;;;;;10.45;6.20;;;;;;;;;;5053989;28;20032;-69
2021/09/08 11:38:27;;;;;;;18.60;7.18;;;;;;;;;;5053344;28;20160;-69
2021/09/08 11:40:54;;;;;;;10.52;6.30;;;;;;;;;;5057440;28;20104;-69
2021/09/08 11:43:30;;;;;;;12.90;6.85;;;;;;;;;;5059505;28;20029;-69
2021/09/08 11:45:56;;;;;;;12.55;6.13;;;;;;;;;;5055125;28;20106;-69
2021/09/08 11:48:29;;;;;;;13.98;6.30;;;;;;;;;;5054157;28;20064;-69
2021/09/08 11:51:05;;;;;;;12.43;6.32;;;;;;;;;;5053982;28;20386;-69
2021/09/08 11:53:32;;;;;;;21.33;6.18;;;;;;;;;;5056073;28;20032;-69
2021/09/08 11:56:05;;;;;;;9.80;5.88;;;;;;;;;;5051643;28;20040;-69
2021/09/08 11:58:31;;;;;;;10.80;5.55;;;;;;;;;;5060409;28;20021;-69
2021/09/08 12:01:03;;;;;;;9.85;5.65;;;;;;;;;;5051706;28;20064;-69
2021/09/08 12:03:30;;;;;;;9.43;5.75;;;;;;;;;;5057290;28;20017;-69
2021/09/08 12:06:12;;;;;;;9.82;5.13;;;;;;;;;;5052384;28;20017;-69
2021/09/08 12:08:47;;;;;;;10.23;5.20;;;;;;;;;;5056485;28;20098;-69
2021/09/08 12:11:28;;;;;;;12.70;5.78;;;;;;;;;;5069453;28;20389;-69
2021/09/08 12:13:55;;;;;;;9.05;5.25;;;;;;;;;;5067564;28;20032;-69
2021/09/08 12:16:39;;;;;;;11.82;6.38;;;;;;;;;;5064734;28;20043;-69
2021/09/08 12:19:12;;;;;;;10.23;5.50;;;;;;;;;;5066013;28;20030;-69
2021/09/08 12:21:38;;;;;;;9.18;5.47;;;;;;;;;;5070194;28;20027;-69
2021/09/08 12:24:24;;;;;;;8.65;5.20;;;;;;;;;;5073537;28;20021;-69
2021/09/08 12:26:50;;;;;;;8.15;5.22;;;;;;;;;;5076065;28;20266;-69
2021/09/08 12:29:16;;;;;;;11.32;5.82;;;;;;;;;;5056426;28;20545;-69
2021/09/08 12:31:58;;;;;;;9.00;5.22;;;;;;;;;;5057372;28;20120;-69
2021/09/08 12:34:25;;;;;;;10.88;6.65;;;;;;;;;;5057711;28;20032;-69
2021/09/08 12:36:51;;;;;;;11.70;5.43;;;;;;;;;;5059309;28;20025;-69
2021/09/08 12:39:21;;;;;;;8.10;5.43;;;;;;;;;;5053963;28;20041;-70
2021/09/08 12:41:58;;;;;;;10.43;6.28;;;;;;;;;;5058215;28;20023;-69
2021/09/08 12:44:29;;;;;;;11.35;5.82;;;;;;;;;;5053540;28;20017;-69
2021/09/08 12:46:55;;;;;;;9.98;5.60;;;;;;;;;;5059444;28;20036;-69
2021/09/08 12:49:24;;;;;;;9.32;5.70;;;;;;;;;;5057548;28;20031;-70
2021/09/08 12:51:50;;;;;;;11.25;5.80;;;;;;;;;;5058349;28;20260;-70
2021/09/08 12:54:17;;;;;;;10.27;6.00;;;;;;;;;;5057139;28;20016;-69
2021/09/08 12:56:43;;;;;;;9.35;4.85;;;;;;;;;;5057858;28;20503;-69
2021/09/08 12:59:09;;;;;;;9.27;4.95;;;;;;;;;;5065593;28;20108;-69
2021/09/08 13:01:36;;;;;;;11.65;5.20;;;;;;;;;;5072053;28;20367;-68
2021/09/08 13:04:02;;;;;;;6.68;4.40;;;;;;;;;;5063649;28;20032;-69
2021/09/08 13:06:27;;;;;;;9.57;4.65;;;;;;;;;;5067765;28;20025;-68
2021/09/08 13:08:53;;;;;;;7.20;4.30;;;;;;;;;;5068736;28;20056;-68
2021/09/08 13:11:19;;;;;;;7.85;3.88;;;;;;;;;;5069595;28;20031;-68
2021/09/08 13:13:45;;;;;;;10.73;4.40;;;;;;;;;;5069663;28;20100;-70
2021/09/08 13:16:11;;;;;;;11.18;4.68;;;;;;;;;;5069416;28;20266;-68
2021/09/08 13:18:37;;;;;;;8.32;4.70;;;;;;;;;;5064840;28;20032;-68
2021/09/08 13:21:04;;;;;;;10.23;5.82;;;;;;;;;;5074143;28;20453;-68
2021/09/08 13:23:30;;;;;;;9.85;5.45;;;;;;;;;;5075433;28;20370;-68
2021/09/08 13:25:56;;;;;;;7.85;4.70;;;;;;;;;;5067672;28;20025;-68
2021/09/08 13:28:22;;;;;;;9.02;5.43;;;;;;;;;;5067530;28;21238;-68
2021/09/08 13:30:48;;;;;;;10.80;6.00;;;;;;;;;;5071480;28;20063;-68
2021/09/08 13:33:13;;;;;;;14.27;7.22;;;;;;;;;;5071352;28;20025;-68
2021/09/08 13:35:39;;;;;;;8.45;5.30;;;;;;;;;;5076609;28;20511;-69
2021/09/08 13:38:05;;;;;;;11.88;6.82;;;;;;;;;;5071193;28;20508;-68
2021/09/08 13:40:32;;;;;;;9.93;6.35;;;;;;;;;;5059020;28;20045;-70
2021/09/08 13:42:57;;;;;;;11.90;6.35;;;;;;;;;;5086909;28;20474;-68
2021/09/08 13:45:25;;;;;;;10.20;5.57;;;;;;;;;;5069797;28;20025;-68
2021/09/08 13:47:51;;;;;;;13.23;7.82;;;;;;;;;;5068711;28;20031;-68
2021/09/08 13:50:17;;;;;;;11.57;7.22;;;;;;;;;;5066344;28;20029;-69
2021/09/08 13:52:46;;;;;;;12.55;8.40;;;;;;;;;;5084367;28;20020;-68
2021/09/08 13:55:12;;;;;;;14.00;7.60;;;;;;;;;;5071579;28;20041;-69
2021/09/08 13:57:38;;;;;;;12.95;7.82;;;;;;;;;;5069197;28;20025;-68
2021/09/08 14:00:04;;;;;;;16.75;8.88;;;;;;;;;;5064163;28;20047;-68
2021/09/08 14:02:30;;;;;;;14.50;8.68;;;;;;;;;;5066151;28;20029;-69
2021/09/08 14:04:56;;;;;;;12.90;7.55;;;;;;;;;;5062347;28;20029;-69
2021/09/08 14:07:23;;;;;;;14.07;8.80;;;;;;;;;;5066734;28;20073;-69
2021/09/08 14:09:49;;;;;;;17.75;8.63;;;;;;;;;;5060049;28;20051;-68
2021/09/08 14:12:15;;;;;;;13.93;7.88;;;;;;;;;;5072142;28;20044;-68
2021/09/08 14:14:41;;;;;;;11.63;7.35;;;;;;;;;;5065462;28;20029;-68
2021/09/08 14:17:08;;;;;;;12.85;7.43;;;;;;;;;;5050530;28;20044;-69
2021/09/08 14:19:34;;;;;;;13.43;8.23;;;;;;;;;;5068674;28;20016;-68